createdAt,value
2023-02-15T00:00:19.709Z,75.53
2023-02-15T00:03:07.937Z,75.49
2023-02-15T00:05:36.392Z,75.69
2023-02-15T00:08:04.953Z,75.55
2023-02-15T00:10:33.158Z,75.47
2023-02-15T00:13:01.648Z,75.46
2023-02-15T00:15:30.854Z,75.16
2023-02-15T00:17:59.031Z,75.46
2023-02-15T00:20:27.315Z,75.37
2023-02-15T00:22:55.904Z,75.46
2023-02-15T00:25:24.306Z,75.49
2023-02-15T00:27:52.569Z,75.70
2023-02-15T00:30:21.129Z,75.74
2023-02-15T00:32:49.863Z,75.55
2023-02-15T00:35:18.441Z,75.68
2023-02-15T00:37:46.614Z,75.65
2023-02-15T00:40:15.206Z,75.81
2023-02-15T00:42:43.691Z,76.18
2023-02-15T00:45:11.874Z,76.34
2023-02-15T00:47:40.360Z,76.36
2023-02-15T00:50:09.279Z,76.47
2023-02-15T00:52:37.540Z,76.56
2023-02-15T00:55:06.182Z,76.50
2023-02-15T00:57:34.441Z,76.70
2023-02-15T01:00:03.638Z,77.04
2023-02-15T01:02:32.200Z,77.14
2023-02-15T01:05:00.587Z,77.02
2023-02-15T01:07:28.970Z,77.20
2023-02-15T01:09:57.458Z,77.23
2023-02-15T01:12:25.944Z,77.04
2023-02-15T01:14:54.435Z,76.98
2023-02-15T01:17:22.612Z,77.06
2023-02-15T01:19:52.438Z,77.48
2023-02-15T01:22:20.921Z,77.50
2023-02-15T01:24:52.989Z,77.86
2023-02-15T01:27:21.170Z,77.93
2023-02-15T01:29:49.804Z,77.94
2023-02-15T01:32:18.142Z,78.07
2023-02-15T01:34:46.525Z,78.01
2023-02-15T01:37:15.322Z,78.05
2023-02-15T01:39:43.802Z,78.09
2023-02-15T01:42:13.324Z,78.04
2023-02-15T01:44:44.263Z,78.20
2023-02-15T01:47:17.513Z,78.01
2023-02-15T01:49:49.005Z,78.24
2023-02-15T01:52:19.904Z,78.08
2023-02-15T01:54:49.375Z,78.15
2023-02-15T01:57:25.212Z,78.19
2023-02-15T01:59:57.993Z,78.31
2023-02-15T02:02:28.435Z,78.52
2023-02-15T02:05:07.612Z,78.50
2023-02-15T02:07:42.801Z,78.64
2023-02-15T02:10:14.658Z,78.20
2023-02-15T02:12:46.217Z,78.54
2023-02-15T02:15:15.906Z,78.71
2023-02-15T02:18:03.247Z,78.60
2023-02-15T02:20:37.666Z,78.38
2023-02-15T02:23:23.960Z,78.19
2023-02-15T02:26:19.530Z,78.40
2023-02-15T02:29:28.850Z,78.19
2023-02-15T02:32:23.467Z,78.17
2023-02-15T02:35:02.190Z,78.19
2023-02-15T02:37:57.084Z,78.20
2023-02-15T02:40:57.592Z,78.26
2023-02-15T02:43:39.688Z,78.19
2023-02-15T02:46:16.543Z,77.89
2023-02-15T02:48:45.160Z,78.05
2023-02-15T02:51:15.280Z,78.08
2023-02-15T02:53:44.178Z,78.00
2023-02-15T02:56:20.849Z,77.82
2023-02-15T02:59:05.711Z,77.94
2023-02-15T03:01:47.772Z,78.50
2023-02-15T03:04:29.914Z,78.45
2023-02-15T03:07:06.170Z,78.34
2023-02-15T03:09:44.791Z,78.18
2023-02-15T03:12:22.907Z,78.55
2023-02-15T03:14:58.752Z,78.93
2023-02-15T03:17:30.206Z,79.03
2023-02-15T03:20:03.373Z,78.87
2023-02-15T03:22:44.381Z,78.78
2023-02-15T03:25:22.786Z,79.00
2023-02-15T03:27:55.979Z,78.76
2023-02-15T03:30:26.741Z,79.19
2023-02-15T03:32:59.096Z,79.15
2023-02-15T03:35:44.781Z,79.28
2023-02-15T03:38:18.992Z,79.23
2023-02-15T03:41:07.956Z,79.33
2023-02-15T03:43:56.796Z,79.59
2023-02-15T03:46:35.076Z,79.63
2023-02-15T03:49:22.631Z,79.65
2023-02-15T03:51:54.901Z,79.57
2023-02-15T03:54:43.675Z,79.52
2023-02-15T03:57:38.747Z,79.62
2023-02-15T04:00:37.626Z,79.74
2023-02-15T04:03:12.011Z,79.85
2023-02-15T04:05:41.528Z,79.88
2023-02-15T04:08:10.799Z,79.75
2023-02-15T04:10:54.535Z,80.05
2023-02-15T04:13:30.574Z,80.08
2023-02-15T04:16:05.768Z,80.29
2023-02-15T04:19:00.082Z,80.11
2023-02-15T04:21:49.952Z,80.13
2023-02-15T04:24:37.145Z,80.00
2023-02-15T04:27:07.043Z,79.99
2023-02-15T04:29:35.146Z,80.18
2023-02-15T04:32:04.031Z,80.52
2023-02-15T04:34:32.224Z,80.56
2023-02-15T04:37:00.420Z,80.59
2023-02-15T04:39:28.688Z,80.89
2023-02-15T04:41:57.174Z,80.68
2023-02-15T04:44:25.964Z,80.37
2023-02-15T04:46:54.142Z,80.49
2023-02-15T04:49:22.632Z,80.43
2023-02-15T04:51:51.432Z,80.42
2023-02-15T04:54:19.817Z,80.16
2023-02-15T04:56:48.198Z,80.17
2023-02-15T04:59:16.680Z,80.24
2023-02-15T05:01:44.864Z,80.38
2023-02-15T05:04:13.584Z,80.31
2023-02-15T05:06:42.141Z,80.11
2023-02-15T05:09:15.102Z,80.25
2023-02-15T05:11:43.726Z,79.95
2023-02-15T05:14:12.010Z,80.01
2023-02-15T05:16:40.828Z,79.98
2023-02-15T05:19:09.280Z,79.94
2023-02-15T05:21:37.884Z,80.13
2023-02-15T05:24:26.723Z,80.03
2023-02-15T05:27:13.732Z,80.12
2023-02-15T05:29:42.528Z,80.04
2023-02-15T05:32:14.699Z,80.00
2023-02-15T05:34:43.402Z,80.05
2023-02-15T05:37:11.784Z,80.11
2023-02-15T05:39:40.161Z,80.16
2023-02-15T05:42:08.757Z,80.17
2023-02-15T05:44:37.051Z,80.07
2023-02-15T05:47:08.345Z,80.14
2023-02-15T05:49:37.297Z,79.90
2023-02-15T05:52:06.080Z,79.84
2023-02-15T05:54:34.462Z,80.01
2023-02-15T05:57:02.646Z,79.78
2023-02-15T05:59:31.132Z,79.77
2023-02-15T06:01:59.568Z,79.85
2023-02-15T06:04:28.183Z,79.80
2023-02-15T06:06:56.587Z,79.89
2023-02-15T06:09:24.973Z,79.56
2023-02-15T06:11:53.268Z,79.47
2023-02-15T06:14:22.263Z,79.39
2023-02-15T06:16:50.434Z,79.37
2023-02-15T06:19:18.615Z,79.24
2023-02-15T06:21:46.800Z,79.04
2023-02-15T06:24:14.978Z,78.71
2023-02-15T06:26:43.367Z,78.53
2023-02-15T06:29:11.537Z,78.50
2023-02-15T06:31:39.917Z,78.11
2023-02-15T06:34:09.233Z,78.22
2023-02-15T06:36:37.975Z,77.80
2023-02-15T06:39:06.211Z,77.72
2023-02-15T06:41:34.692Z,77.72
2023-02-15T06:44:03.275Z,77.69
2023-02-15T06:46:31.688Z,77.66
2023-02-15T06:49:00.047Z,77.66
2023-02-15T06:51:28.642Z,77.59
2023-02-15T06:53:57.121Z,77.42
2023-02-15T06:56:25.308Z,77.34
2023-02-15T06:58:53.990Z,77.02
2023-02-15T07:01:22.433Z,76.84
2023-02-15T07:03:51.167Z,76.66
2023-02-15T07:06:19.346Z,76.55
2023-02-15T07:08:47.733Z,76.21
2023-02-15T07:11:35.154Z,75.77
2023-02-15T07:14:03.531Z,75.75
2023-02-15T07:16:31.779Z,75.51
2023-02-15T07:18:59.996Z,75.33
2023-02-15T07:21:28.315Z,75.10
2023-02-15T07:23:59.741Z,74.78
2023-02-15T07:26:27.908Z,74.17
2023-02-15T07:28:56.188Z,74.30
2023-02-15T07:31:24.706Z,73.78
2023-02-15T07:33:53.061Z,73.57
2023-02-15T07:36:21.753Z,73.28
2023-02-15T07:38:50.144Z,73.44
2023-02-15T07:41:18.440Z,72.78
2023-02-15T07:43:46.744Z,72.56
2023-02-15T07:46:17.573Z,72.32
2023-02-15T07:48:45.929Z,71.42
2023-02-15T07:51:15.859Z,70.80
2023-02-15T07:53:44.446Z,70.37
2023-02-15T07:56:14.081Z,69.79
2023-02-15T07:58:59.424Z,68.65
2023-02-15T08:01:33.566Z,67.98
2023-02-15T08:04:02.439Z,66.65
2023-02-15T08:06:34.396Z,66.04
2023-02-15T08:09:08.055Z,65.64
2023-02-15T08:11:40.892Z,64.74
2023-02-15T08:14:28.618Z,63.82
2023-02-15T08:17:03.467Z,62.73
2023-02-15T08:19:33.596Z,62.58
2023-02-15T08:22:05.171Z,63.09
2023-02-15T08:24:37.667Z,63.03
2023-02-15T08:27:07.763Z,62.21
2023-02-15T08:29:37.746Z,61.44
2023-02-15T08:32:13.090Z,60.72
2023-02-15T08:34:43.062Z,60.55
2023-02-15T08:37:11.506Z,59.82
2023-02-15T08:39:40.208Z,59.82
2023-02-15T08:42:08.578Z,59.70
2023-02-15T08:44:36.989Z,58.82
2023-02-15T08:47:05.344Z,59.25
2023-02-15T08:49:33.849Z,58.79
2023-02-15T08:52:02.321Z,59.02
2023-02-15T08:54:31.117Z,58.57
2023-02-15T08:57:00.697Z,58.21
2023-02-15T08:59:29.427Z,57.95
2023-02-15T09:01:58.182Z,57.72
2023-02-15T09:04:26.599Z,56.16
2023-02-15T09:06:54.780Z,55.54
2023-02-15T09:09:23.368Z,54.53
2023-02-15T09:11:58.821Z,54.60
2023-02-15T09:14:28.579Z,53.31
2023-02-15T09:16:57.657Z,53.17
2023-02-15T09:19:26.333Z,52.71
2023-02-15T09:21:54.980Z,52.54
2023-02-15T09:24:23.293Z,51.99
2023-02-15T09:26:51.790Z,50.07
2023-02-15T09:29:20.962Z,49.29
2023-02-15T09:31:51.601Z,48.57
2023-02-15T09:34:22.352Z,48.11
2023-02-15T09:36:52.040Z,48.82
2023-02-15T09:39:24.904Z,49.02
2023-02-15T09:41:53.949Z,48.69
2023-02-15T09:44:25.208Z,48.56
2023-02-15T09:47:06.489Z,47.22
2023-02-15T09:49:40.697Z,45.83
2023-02-15T09:52:37.735Z,44.53
2023-02-15T09:55:20.968Z,43.33
2023-02-15T09:58:14.112Z,44.76
2023-02-15T10:00:56.532Z,44.75
2023-02-15T10:03:43.379Z,44.40
2023-02-15T10:06:36.475Z,41.38
2023-02-15T10:09:26.037Z,41.36
2023-02-15T10:12:07.111Z,41.35
2023-02-15T10:15:03.739Z,37.92
2023-02-15T10:18:17.055Z,39.41
2023-02-15T10:21:04.325Z,37.55
2023-02-15T10:23:51.171Z,39.11
2023-02-15T10:26:35.621Z,39.75
2023-02-15T10:29:06.566Z,39.05
2023-02-15T10:31:48.069Z,39.17
2023-02-15T10:34:20.758Z,39.18
2023-02-15T10:37:25.949Z,38.09
2023-02-15T10:40:23.303Z,37.47
2023-02-15T10:43:01.926Z,36.34
2023-02-15T10:45:49.252Z,35.07
2023-02-15T10:48:23.552Z,33.46
2023-02-15T10:50:55.197Z,33.50
2023-02-15T10:53:26.462Z,34.35
2023-02-15T10:56:20.475Z,35.16
2023-02-15T10:59:11.836Z,35.55
2023-02-15T11:02:15.634Z,35.30
2023-02-15T11:05:04.151Z,34.78
2023-02-15T11:07:44.538Z,33.48
2023-02-15T11:10:42.084Z,32.48
2023-02-15T11:13:15.991Z,32.03
2023-02-15T11:15:50.339Z,31.50
2023-02-15T11:18:43.233Z,30.78
2023-02-15T11:21:14.097Z,31.05
2023-02-15T11:23:45.904Z,30.95
2023-02-15T11:26:21.609Z,30.41
2023-02-15T11:28:56.346Z,31.77
2023-02-15T11:31:28.045Z,32.65
2023-02-15T11:34:13.283Z,33.44
2023-02-15T11:36:44.517Z,31.60
2023-02-15T11:39:18.527Z,27.97
2023-02-15T11:41:53.362Z,30.14
2023-02-15T11:44:48.354Z,30.88
2023-02-15T11:47:16.577Z,29.03
2023-02-15T11:49:47.052Z,28.91
2023-02-15T11:52:18.823Z,29.99
2023-02-15T11:54:53.116Z,30.36
2023-02-15T11:57:23.084Z,29.86
2023-02-15T12:00:05.143Z,30.55
2023-02-15T12:02:38.466Z,31.29
2023-02-15T12:05:15.135Z,31.25
2023-02-15T12:08:07.000Z,31.46
2023-02-15T12:10:41.384Z,31.35
2023-02-15T12:13:14.045Z,30.46
2023-02-15T12:15:46.669Z,31.27
2023-02-15T12:18:25.669Z,31.35
2023-02-15T12:20:54.178Z,32.02
2023-02-15T12:23:23.209Z,32.25
2023-02-15T12:25:57.039Z,33.05
2023-02-15T12:28:32.606Z,33.00
2023-02-15T12:31:03.954Z,33.33
2023-02-15T12:33:46.651Z,33.49
2023-02-15T12:36:23.690Z,33.64
2023-02-15T12:39:17.410Z,33.77
2023-02-15T12:41:58.179Z,33.55
2023-02-15T12:44:38.238Z,33.08
2023-02-15T12:47:20.439Z,34.18
2023-02-15T12:50:21.355Z,33.79
2023-02-15T12:52:52.811Z,32.80
2023-02-15T12:55:33.167Z,32.16
2023-02-15T12:58:24.688Z,31.05
2023-02-15T13:01:18.903Z,31.00
2023-02-15T13:04:00.966Z,31.09
2023-02-15T13:06:33.327Z,31.48
2023-02-15T13:09:14.505Z,31.04
2023-02-15T13:11:45.747Z,29.92
2023-02-15T13:14:23.683Z,29.55
2023-02-15T13:16:54.635Z,29.52
2023-02-15T13:19:46.119Z,28.12
2023-02-15T13:22:17.976Z,28.06
2023-02-15T13:25:02.741Z,27.61
2023-02-15T13:27:41.045Z,26.87
2023-02-15T13:30:22.479Z,27.05
2023-02-15T13:33:00.944Z,27.32
2023-02-15T13:35:39.457Z,28.28
2023-02-15T13:38:38.846Z,28.96
2023-02-15T13:41:17.977Z,30.40
2023-02-15T13:44:04.272Z,30.81
2023-02-15T13:46:38.692Z,30.97
2023-02-15T13:49:27.339Z,31.12
2023-02-15T13:52:05.548Z,31.75
2023-02-15T13:54:54.705Z,32.72
2023-02-15T13:57:32.204Z,33.19
2023-02-15T14:00:09.798Z,33.56
2023-02-15T14:03:14.305Z,33.94
2023-02-15T14:06:07.352Z,34.87
2023-02-15T14:09:13.191Z,34.94
2023-02-15T14:12:13.701Z,34.58
2023-02-15T14:15:16.817Z,35.02
2023-02-15T14:18:09.311Z,35.29
2023-02-15T14:20:57.570Z,36.14
2023-02-15T14:23:50.805Z,34.28
2023-02-15T14:26:26.658Z,31.85
2023-02-15T14:29:06.092Z,30.10
2023-02-15T14:31:41.073Z,30.27
2023-02-15T14:34:22.329Z,29.26
2023-02-15T14:36:52.983Z,29.50
2023-02-15T14:39:48.845Z,30.69
2023-02-15T14:42:40.154Z,31.63
2023-02-15T14:45:22.716Z,32.24
2023-02-15T14:48:06.458Z,32.59
2023-02-15T14:50:45.068Z,33.10
2023-02-15T14:53:33.677Z,33.15
2023-02-15T14:56:19.338Z,33.39
2023-02-15T14:58:53.562Z,34.00
2023-02-15T15:01:33.020Z,34.44
2023-02-15T15:04:09.976Z,34.91
2023-02-15T15:06:41.869Z,35.31
2023-02-15T15:09:10.235Z,35.72
2023-02-15T15:11:44.045Z,36.12
2023-02-15T15:14:33.310Z,36.66
2023-02-15T15:17:04.920Z,36.85
2023-02-15T15:19:52.621Z,37.10
2023-02-15T15:22:26.654Z,37.41
2023-02-15T15:25:22.405Z,37.98
2023-02-15T15:27:54.437Z,38.60
2023-02-15T15:30:22.808Z,38.85
2023-02-15T15:32:57.884Z,38.99
2023-02-15T15:35:48.169Z,39.37
2023-02-15T15:38:47.971Z,39.80
2023-02-15T15:41:20.443Z,40.12
2023-02-15T15:44:07.567Z,40.32
2023-02-15T15:46:54.775Z,40.41
2023-02-15T15:49:29.368Z,40.34
2023-02-15T15:52:02.742Z,40.76
2023-02-15T15:54:31.298Z,40.77
2023-02-15T15:57:03.627Z,41.18
2023-02-15T15:59:35.279Z,41.21
2023-02-15T16:02:16.464Z,41.64
2023-02-15T16:04:47.087Z,41.94
2023-02-15T16:07:18.492Z,42.61
2023-02-15T16:10:20.443Z,43.34
2023-02-15T16:12:50.698Z,43.86
2023-02-15T16:15:24.679Z,44.09
2023-02-15T16:17:57.380Z,44.32
2023-02-15T16:20:27.808Z,44.54
2023-02-15T16:23:10.600Z,44.96
2023-02-15T16:25:49.626Z,45.22
2023-02-15T16:28:19.672Z,45.07
2023-02-15T16:31:07.219Z,44.94
2023-02-15T16:33:40.324Z,45.21
2023-02-15T16:36:13.880Z,45.49
2023-02-15T16:38:44.808Z,45.78
2023-02-15T16:41:22.404Z,46.20
2023-02-15T16:43:53.908Z,46.42
2023-02-15T16:46:29.761Z,46.74
2023-02-15T16:49:02.980Z,46.97
2023-02-15T16:51:35.288Z,47.37
2023-02-15T16:54:24.642Z,47.76
2023-02-15T16:56:52.939Z,47.98
2023-02-15T16:59:44.492Z,48.29
2023-02-15T17:02:43.127Z,48.73
2023-02-15T17:05:19.565Z,49.44
2023-02-15T17:08:08.168Z,49.20
2023-02-15T17:10:42.972Z,49.48
2023-02-15T17:13:16.561Z,49.47
2023-02-15T17:16:03.320Z,49.52
2023-02-15T17:18:54.984Z,49.52
2023-02-15T17:21:29.061Z,49.64
2023-02-15T17:24:01.687Z,50.37
2023-02-15T17:26:38.756Z,50.86
2023-02-15T17:29:36.511Z,50.33
2023-02-15T17:32:13.931Z,50.36
2023-02-15T17:34:45.258Z,49.67
2023-02-15T17:37:24.993Z,49.92
2023-02-15T17:39:53.996Z,49.69
2023-02-15T17:42:22.481Z,49.87
2023-02-15T17:44:51.181Z,49.90
2023-02-15T17:47:25.536Z,50.21
2023-02-15T17:49:55.442Z,50.43
2023-02-15T17:52:28.707Z,50.37
2023-02-15T17:55:18.284Z,50.33
2023-02-15T17:57:46.564Z,50.08
2023-02-15T18:00:35.106Z,50.33
2023-02-15T18:03:22.833Z,50.61
2023-02-15T18:06:14.698Z,50.67
2023-02-15T18:09:05.038Z,50.88
2023-02-15T18:11:39.464Z,50.96
2023-02-15T18:14:10.304Z,51.14
2023-02-15T18:16:43.723Z,51.31
2023-02-15T18:19:19.250Z,51.53
2023-02-15T18:21:55.723Z,51.62
2023-02-15T18:24:26.773Z,51.61
2023-02-15T18:26:55.672Z,51.59
2023-02-15T18:29:25.093Z,51.79
2023-02-15T18:31:57.637Z,52.22
2023-02-15T18:34:31.257Z,52.29
2023-02-15T18:37:03.732Z,52.51
2023-02-15T18:39:48.590Z,52.77
2023-02-15T18:42:24.558Z,52.97
2023-02-15T18:44:56.671Z,52.95
2023-02-15T18:47:25.296Z,53.22
2023-02-15T18:49:55.536Z,53.29
2023-02-15T18:52:36.471Z,53.86
2023-02-15T18:55:16.135Z,53.74
2023-02-15T18:57:48.713Z,54.47
2023-02-15T19:00:18.039Z,54.97
2023-02-15T19:02:47.268Z,55.00
2023-02-15T19:05:18.302Z,55.25
2023-02-15T19:07:48.752Z,55.04
2023-02-15T19:10:24.671Z,55.06
2023-02-15T19:12:56.933Z,55.03
2023-02-15T19:15:33.907Z,55.49
2023-02-15T19:18:02.122Z,55.32
2023-02-15T19:20:40.160Z,55.64
2023-02-15T19:23:19.600Z,56.08
2023-02-15T19:25:49.208Z,55.64
2023-02-15T19:28:22.243Z,56.17
2023-02-15T19:30:50.440Z,56.32
2023-02-15T19:33:23.859Z,56.77
2023-02-15T19:35:59.219Z,56.73
2023-02-15T19:38:35.194Z,56.68
2023-02-15T19:41:08.854Z,56.51
2023-02-15T19:43:39.257Z,56.33
2023-02-15T19:46:07.733Z,56.75
2023-02-15T19:48:36.231Z,56.93
2023-02-15T19:51:05.030Z,57.09
2023-02-15T19:53:33.723Z,56.98
2023-02-15T19:56:02.460Z,57.05
2023-02-15T19:58:31.099Z,57.15
2023-02-15T20:00:59.786Z,57.34
2023-02-15T20:03:28.177Z,57.53
2023-02-15T20:05:56.562Z,58.07
2023-02-15T20:08:25.529Z,57.83
2023-02-15T20:10:53.949Z,57.64
2023-02-15T20:13:24.988Z,57.67
2023-02-15T20:15:53.239Z,57.93
2023-02-15T20:18:22.687Z,57.79
2023-02-15T20:20:54.037Z,58.17
2023-02-15T20:23:27.422Z,58.25
2023-02-15T20:26:03.286Z,58.75
2023-02-15T20:28:31.975Z,59.34
2023-02-15T20:31:00.675Z,59.48
2023-02-15T20:33:31.707Z,59.42
2023-02-15T20:36:00.192Z,59.71
2023-02-15T20:38:32.531Z,59.65
2023-02-15T20:41:20.507Z,59.80
2023-02-15T20:43:49.189Z,59.65
2023-02-15T20:46:18.217Z,59.88
2023-02-15T20:48:46.779Z,60.18
2023-02-15T20:51:21.142Z,59.99
2023-02-15T20:53:49.400Z,60.65
2023-02-15T20:56:23.791Z,60.60
2023-02-15T20:58:53.826Z,61.23
2023-02-15T21:01:22.137Z,61.19
2023-02-15T21:03:51.598Z,61.36
2023-02-15T21:06:19.909Z,61.78
2023-02-15T21:08:48.301Z,61.90
2023-02-15T21:11:20.843Z,62.16
2023-02-15T21:13:50.691Z,62.52
2023-02-15T21:16:19.409Z,62.88
2023-02-15T21:18:47.661Z,62.79
2023-02-15T21:21:23.636Z,62.61
2023-02-15T21:23:53.455Z,62.87
2023-02-15T21:26:23.151Z,62.75
2023-02-15T21:28:51.798Z,62.75
2023-02-15T21:31:22.760Z,62.39
2023-02-15T21:33:52.391Z,62.04
2023-02-15T21:36:25.291Z,62.01
2023-02-15T21:38:54.080Z,61.90
2023-02-15T21:41:43.333Z,61.94
2023-02-15T21:44:41.806Z,61.67
2023-02-15T21:47:41.413Z,61.96
2023-02-15T21:50:36.094Z,62.00
2023-02-15T21:53:05.504Z,61.91
2023-02-15T21:55:33.994Z,61.92
2023-02-15T21:58:02.595Z,62.00
2023-02-15T22:00:31.209Z,61.75
2023-02-15T22:03:01.283Z,61.80
2023-02-15T22:05:32.212Z,61.68
2023-02-15T22:08:00.952Z,61.99
2023-02-15T22:10:31.649Z,61.87
2023-02-15T22:13:01.881Z,61.80
2023-02-15T22:15:37.856Z,61.72
2023-02-15T22:18:06.731Z,61.72
2023-02-15T22:20:35.118Z,61.67
2023-02-15T22:23:03.612Z,61.76
2023-02-15T22:25:32.090Z,61.80
2023-02-15T22:28:00.270Z,61.81
2023-02-15T22:30:37.103Z,61.83
2023-02-15T22:33:05.430Z,61.97
2023-02-15T22:35:37.016Z,61.94
2023-02-15T22:38:05.161Z,61.99
2023-02-15T22:40:34.564Z,62.48
2023-02-15T22:43:05.819Z,62.36
2023-02-15T22:45:35.901Z,62.15
2023-02-15T22:48:04.430Z,62.45
2023-02-15T22:50:33.425Z,62.43
2023-02-15T22:53:03.766Z,62.77
2023-02-15T22:55:36.554Z,62.62
2023-02-15T22:58:05.622Z,62.62
2023-02-15T23:00:39.760Z,62.70
2023-02-15T23:03:34.629Z,62.75
2023-02-15T23:06:04.462Z,63.03
2023-02-15T23:08:32.644Z,63.04
2023-02-15T23:11:01.027Z,63.34
2023-02-15T23:13:33.276Z,63.24
2023-02-15T23:16:03.592Z,63.25
2023-02-15T23:18:40.004Z,63.55
2023-02-15T23:21:28.142Z,63.47
2023-02-15T23:24:02.463Z,63.23
2023-02-15T23:26:31.727Z,63.29
2023-02-15T23:29:01.644Z,63.31
2023-02-15T23:31:34.247Z,63.27
2023-02-15T23:34:13.050Z,63.60
2023-02-15T23:36:41.364Z,63.54
2023-02-15T23:39:38.708Z,63.69
2023-02-15T23:42:14.689Z,63.87
2023-02-15T23:44:48.169Z,63.90
2023-02-15T23:47:44.383Z,64.22
2023-02-15T23:50:26.789Z,64.45
2023-02-15T23:52:56.631Z,64.59
2023-02-15T23:55:38.089Z,64.70
2023-02-15T23:58:11.114Z,64.71
